Time;durP1;ratioP1;P1;durP2;ratioP2;P2;SDS_P1;SDS_P2;PMS_P1;PMS_P2;Temp;Humidity;BMP_temperature;BMP_pressure;BME280_temperature;BME280_humidity;BME280_pressure;Samples;Min_cycle;Max_cycle;Signal;HPM_P1;HPM_P2
2021/12/18 00:02:23;;;;;;;5.50;1.98;;;28.60;99.90;;;;;;5010419;28;20229;-81
2021/12/18 00:04:54;;;;;;;8.23;2.30;;;28.60;99.90;;;;;;5009114;28;20764;-81
2021/12/18 00:07:24;;;;;;;8.27;2.53;;;28.60;99.90;;;;;;5008682;28;20608;-83
2021/12/18 00:09:55;;;;;;;6.63;2.03;;;28.70;99.90;;;;;;5010324;28;20222;-81
2021/12/18 00:12:26;;;;;;;9.20;2.13;;;28.70;99.90;;;;;;5011572;28;20194;-82
2021/12/18 00:14:58;;;;;;;10.90;2.60;;;28.70;99.90;;;;;;5007102;28;20198;-81
2021/12/18 00:17:29;;;;;;;7.50;2.38;;;28.70;99.90;;;;;;5013529;28;20677;-83
2021/12/18 00:19:59;;;;;;;7.35;2.53;;;28.70;99.90;;;;;;5011023;28;20276;-84
2021/12/18 00:22:30;;;;;;;8.82;2.50;;;28.90;99.90;;;;;;5014101;28;20321;-83
2021/12/18 00:25:01;;;;;;;8.90;2.60;;;29.00;99.90;;;;;;5000426;28;20210;-82
2021/12/18 00:27:31;;;;;;;10.57;2.42;;;29.00;99.90;;;;;;5010984;28;20229;-83
2021/12/18 00:30:04;;;;;;;7.40;2.15;;;29.00;99.90;;;;;;5011940;28;20217;-83
2021/12/18 00:32:35;;;;;;;6.40;1.90;;;29.10;99.90;;;;;;5012045;28;20252;-83
2021/12/18 00:35:06;;;;;;;3.50;1.67;;;29.30;99.90;;;;;;5008972;28;20206;-83
2021/12/18 00:37:37;;;;;;;5.40;1.63;;;29.50;99.90;;;;;;5011699;28;20209;-84
2021/12/18 00:40:11;;;;;;;3.25;1.60;;;29.70;99.90;;;;;;5008701;28;20275;-83
2021/12/18 00:42:47;;;;;;;7.47;2.50;;;29.90;99.90;;;;;;5009075;28;20223;-83
2021/12/18 00:45:20;;;;;;;7.82;2.60;;;30.10;99.90;;;;;;5005343;28;20197;-83
2021/12/18 00:47:51;;;;;;;8.07;2.53;;;30.20;99.90;;;;;;5011418;28;20186;-84
2021/12/18 00:50:24;;;;;;;7.55;2.40;;;30.30;99.90;;;;;;5012075;28;20653;-83
2021/12/18 00:52:55;;;;;;;11.85;3.05;;;30.40;99.90;;;;;;5011125;28;20203;-83
2021/12/18 00:55:25;;;;;;;10.27;2.53;;;30.50;99.90;;;;;;5005608;28;20226;-84
2021/12/18 00:57:56;;;;;;;7.60;2.22;;;30.60;99.90;;;;;;5006420;28;20205;-83
2021/12/18 01:00:29;;;;;;;13.48;3.10;;;30.60;99.90;;;;;;5012841;28;20198;-83
2021/12/18 01:03:02;;;;;;;12.20;2.90;;;30.60;99.90;;;;;;5012424;28;20600;-82
2021/12/18 01:05:34;;;;;;;11.30;3.20;;;30.60;99.90;;;;;;5011550;28;20577;-83
2021/12/18 01:08:04;;;;;;;10.45;2.90;;;30.60;99.90;;;;;;5011202;28;20715;-83
2021/12/18 01:10:48;;;;;;;12.40;3.05;;;30.70;99.90;;;;;;4997095;28;20218;-83
2021/12/18 01:13:23;;;;;;;10.43;2.92;;;30.80;99.90;;;;;;4997310;28;20221;-84
2021/12/18 01:16:04;;;;;;;11.77;3.00;;;30.80;99.90;;;;;;4994591;28;20230;-84
2021/12/18 01:24:09;;;;;;;12.63;3.20;;;30.80;99.90;;;;;;5016071;28;20213;-79
2021/12/18 01:26:40;;;;;;;9.25;3.17;;;30.60;99.90;;;;;;5011938;28;20237;-81
2021/12/18 01:29:10;;;;;;;10.70;3.25;;;30.60;99.90;;;;;;5011785;28;20255;-82
2021/12/18 01:31:43;;;;;;;9.05;2.80;;;30.50;99.90;;;;;;5012141;28;20616;-82
2021/12/18 01:34:13;;;;;;;13.07;3.55;;;30.40;99.90;;;;;;5013031;28;20632;-82
2021/12/18 01:36:45;;;;;;;15.57;3.58;;;30.30;99.90;;;;;;5011655;28;20288;-82
2021/12/18 01:39:15;;;;;;;12.57;3.55;;;30.30;99.90;;;;;;5011898;28;20281;-81
2021/12/18 01:42:01;;;;;;;11.20;3.60;;;30.20;99.90;;;;;;5011919;28;20194;-82
2021/12/18 01:44:54;;;;;;;11.90;3.10;;;30.20;99.90;;;;;;5006168;28;20649;-82
2021/12/18 01:53:11;;;;;;;10.95;3.50;;;30.10;99.90;;;;;;5011833;28;20205;-82
2021/12/18 01:55:44;;;;;;;12.80;3.35;;;30.20;99.90;;;;;;5010675;28;20253;-82
2021/12/18 01:58:21;;;;;;;9.70;2.95;;;30.30;99.90;;;;;;5012171;28;20202;-82
2021/12/18 02:00:53;;;;;;;13.27;3.70;;;30.30;99.90;;;;;;5005083;28;20198;-82
2021/12/18 02:03:26;;;;;;;10.93;3.08;;;30.40;99.90;;;;;;5000958;28;20199;-82
2021/12/18 02:05:57;;;;;;;10.82;3.40;;;30.50;99.90;;;;;;4993972;28;20193;-81
2021/12/18 02:08:29;;;;;;;15.65;3.53;;;30.50;99.90;;;;;;5012404;28;20624;-82
2021/12/18 02:11:10;;;;;;;11.93;3.10;;;30.60;99.90;;;;;;4997586;28;20286;-81
2021/12/18 02:14:02;;;;;;;8.55;3.05;;;30.60;99.90;;;;;;4992053;28;20209;-82
2021/12/18 02:19:50;;;;;;;11.35;3.45;;;30.80;99.90;;;;;;5008906;28;20213;-82
2021/12/18 02:22:26;;;;;;;11.45;3.60;;;30.90;99.90;;;;;;5012292;28;20229;-82
2021/12/18 02:24:56;;;;;;;9.95;3.15;;;31.00;99.90;;;;;;5010139;28;20260;-82
2021/12/18 02:27:27;;;;;;;12.80;3.42;;;31.10;99.90;;;;;;5010921;28;20288;-82
2021/12/18 02:30:03;;;;;;;10.35;2.97;;;31.20;99.90;;;;;;5008608;28;20202;-81
2021/12/18 02:32:33;;;;;;;15.25;3.35;;;31.20;99.90;;;;;;5011199;28;20213;-82
2021/12/18 02:35:05;;;;;;;15.73;3.90;;;31.30;99.90;;;;;;4994494;28;20209;-82
2021/12/18 02:37:40;;;;;;;11.00;3.03;;;31.10;99.90;;;;;;5012526;28;20264;-78
2021/12/18 02:42:59;;;;;;;11.15;3.13;;;30.70;99.90;;;;;;5009681;28;20216;-83
2021/12/18 02:45:29;;;;;;;15.90;3.53;;;30.80;99.90;;;;;;5011225;28;20202;-82
2021/12/18 02:48:00;;;;;;;11.63;3.28;;;30.90;99.90;;;;;;5004617;28;20210;-82
2021/12/18 02:50:31;;;;;;;9.20;2.85;;;31.00;99.90;;;;;;5006078;28;20573;-82
2021/12/18 02:53:06;;;;;;;9.27;3.08;;;31.10;99.90;;;;;;4991360;28;20265;-81
2021/12/18 02:55:39;;;;;;;10.38;3.00;;;31.30;99.90;;;;;;4990843;28;20277;-82
2021/12/18 02:58:09;;;;;;;10.25;2.78;;;31.50;99.90;;;;;;4991735;28;20199;-83
2021/12/18 03:00:40;;;;;;;11.90;3.22;;;31.70;99.90;;;;;;4997624;28;20205;-83
2021/12/18 03:03:11;;;;;;;9.50;2.90;;;31.90;99.90;;;;;;5010657;28;20324;-83
2021/12/18 03:05:49;;;;;;;11.60;3.40;;;31.90;99.90;;;;;;5010697;28;20202;-81
2021/12/18 03:08:36;;;;;;;6.63;2.67;;;31.90;99.90;;;;;;5001746;28;20324;-83
2021/12/18 03:25:19;;;;;;;9.32;2.83;;;31.90;99.90;;;;;;4921502;29;20208;-82
2021/12/18 03:27:50;;;;;;;11.95;2.78;;;31.80;99.90;;;;;;4921534;29;20243;-82
2021/12/18 03:30:22;;;;;;;9.95;3.08;;;31.70;99.90;;;;;;4952008;28;20286;-82
2021/12/18 03:32:52;;;;;;;10.48;3.22;;;31.60;99.90;;;;;;4991697;28;20202;-82
2021/12/18 03:35:24;;;;;;;8.50;2.78;;;31.40;99.90;;;;;;4986143;28;20217;-81
2021/12/18 03:37:55;;;;;;;9.65;2.60;;;31.40;99.90;;;;;;4990755;28;20594;-82
2021/12/18 03:40:29;;;;;;;12.07;3.17;;;31.40;99.90;;;;;;4990873;28;20195;-82
2021/12/18 03:42:59;;;;;;;12.93;2.95;;;31.40;99.90;;;;;;4991579;28;20202;-82
2021/12/18 03:45:30;;;;;;;8.93;2.88;;;31.40;99.90;;;;;;4988998;28;20230;-82
2021/12/18 03:48:01;;;;;;;12.20;2.70;;;31.40;99.90;;;;;;5005572;28;20252;-81
2021/12/18 03:50:31;;;;;;;9.30;2.80;;;31.60;99.90;;;;;;5013811;28;20198;-81
2021/12/18 03:53:02;;;;;;;10.63;2.70;;;31.60;99.90;;;;;;5013822;28;20569;-83
2021/12/18 03:55:35;;;;;;;11.57;3.50;;;31.60;99.90;;;;;;5005004;28;20670;-81
2021/12/18 03:58:05;;;;;;;10.73;3.60;;;31.50;99.90;;;;;;4994866;28;20226;-82
2021/12/18 04:00:36;;;;;;;13.18;3.20;;;31.50;99.90;;;;;;5013905;28;20201;-82
2021/12/18 04:03:08;;;;;;;12.13;2.90;;;31.30;99.90;;;;;;4988782;28;20225;-82
2021/12/18 04:05:39;;;;;;;7.43;2.67;;;31.20;99.90;;;;;;4994480;28;20195;-81
2021/12/18 04:08:12;;;;;;;10.95;3.10;;;31.20;99.90;;;;;;4996573;28;20213;-81
2021/12/18 04:10:46;;;;;;;10.52;2.83;;;31.20;99.90;;;;;;4994035;28;20199;-81
2021/12/18 04:13:16;;;;;;;9.95;2.88;;;31.20;99.90;;;;;;4989252;28;20222;-81
2021/12/18 04:15:47;;;;;;;11.20;3.00;;;31.10;99.90;;;;;;4999267;28;20206;-81
2021/12/18 04:18:18;;;;;;;13.18;3.50;;;31.00;99.90;;;;;;4992722;28;20222;-81
2021/12/18 04:20:48;;;;;;;11.35;3.30;;;31.00;99.90;;;;;;4993981;28;20195;-81
2021/12/18 04:23:19;;;;;;;11.02;3.03;;;30.80;99.90;;;;;;4989020;28;20195;-82
2021/12/18 04:25:52;;;;;;;8.32;2.95;;;30.80;99.90;;;;;;4981562;28;20206;-81
2021/12/18 04:28:22;;;;;;;11.48;3.45;;;30.70;99.90;;;;;;4998671;28;20210;-81
2021/12/18 04:30:53;;;;;;;10.48;3.10;;;30.70;99.90;;;;;;5013658;28;20209;-81
2021/12/18 04:33:24;;;;;;;12.18;2.85;;;30.70;99.90;;;;;;5005608;28;20206;-82
2021/12/18 04:35:55;;;;;;;11.35;3.17;;;30.90;99.90;;;;;;5013460;28;20197;-81
2021/12/18 04:38:26;;;;;;;11.93;2.75;;;31.10;99.90;;;;;;5012949;28;20221;-82
2021/12/18 04:40:59;;;;;;;13.52;3.30;;;31.30;99.90;;;;;;5006719;28;20199;-82
2021/12/18 04:43:29;;;;;;;15.77;3.55;;;31.60;99.90;;;;;;5010993;28;20654;-81
2021/12/18 04:46:00;;;;;;;13.38;3.40;;;31.90;99.90;;;;;;5013623;28;20201;-82
2021/12/18 04:48:31;;;;;;;10.48;2.97;;;32.10;99.90;;;;;;5013667;28;20198;-81
2021/12/18 04:51:02;;;;;;;14.15;3.53;;;32.40;99.90;;;;;;4996233;28;20257;-81
2021/12/18 04:53:33;;;;;;;13.27;3.35;;;32.60;99.90;;;;;;4993471;28;20574;-81
2021/12/18 04:56:05;;;;;;;8.13;2.90;;;32.70;99.90;;;;;;4992835;28;20194;-81
2021/12/18 04:58:36;;;;;;;15.43;3.47;;;32.80;99.90;;;;;;4993900;28;20376;-80
2021/12/18 05:01:07;;;;;;;12.25;3.60;;;32.90;99.90;;;;;;5012627;28;20661;-81
2021/12/18 05:03:39;;;;;;;10.27;3.33;;;33.10;99.90;;;;;;5012406;28;20217;-80
2021/12/18 05:06:11;;;;;;;13.95;3.42;;;33.30;99.90;;;;;;5006422;28;20273;-78
2021/12/18 05:08:41;;;;;;;11.95;3.20;;;33.40;99.90;;;;;;5001149;28;20198;-81
2021/12/18 05:11:14;;;;;;;14.65;3.65;;;33.70;99.90;;;;;;5009772;28;20256;-82
2021/12/18 05:13:45;;;;;;;10.65;3.20;;;33.90;99.90;;;;;;5012443;28;20236;-81
2021/12/18 05:16:15;;;;;;;14.02;3.72;;;34.00;99.90;;;;;;5012218;28;20264;-81
2021/12/18 05:18:46;;;;;;;16.13;3.42;;;34.10;99.90;;;;;;5012231;28;20268;-81
2021/12/18 05:21:18;;;;;;;16.05;3.47;;;34.30;99.90;;;;;;5012199;28;20198;-81
2021/12/18 05:23:49;;;;;;;8.90;3.05;;;34.30;99.90;;;;;;5011713;28;20198;-81
2021/12/18 05:26:21;;;;;;;13.63;3.10;;;34.40;99.90;;;;;;5012951;28;20283;-81
2021/12/18 05:28:52;;;;;;;11.93;3.22;;;34.20;99.90;;;;;;5014640;28;20602;-82
2021/12/18 05:31:23;;;;;;;13.40;3.67;;;33.70;99.90;;;;;;5011800;28;20598;-81
2021/12/18 05:33:58;;;;;;;12.85;3.45;;;33.30;99.90;;;;;;5003427;28;20249;-81
2021/12/18 05:36:36;;;;;;;13.43;3.75;;;33.20;99.90;;;;;;4993138;28;20681;-80
2021/12/18 05:39:09;;;;;;;9.55;3.15;;;33.10;99.90;;;;;;4992453;28;20202;-82
2021/12/18 05:41:41;;;;;;;15.35;3.30;;;33.40;99.90;;;;;;5005308;28;20198;-80
2021/12/18 05:44:12;;;;;;;14.02;3.33;;;33.90;99.90;;;;;;5011917;28;20197;-80
2021/12/18 05:46:43;;;;;;;12.23;3.05;;;34.40;99.90;;;;;;5011856;28;20665;-80
2021/12/18 05:49:14;;;;;;;12.80;3.15;;;34.80;99.90;;;;;;5011248;28;20198;-81
2021/12/18 05:51:45;;;;;;;14.43;3.90;;;35.10;99.90;;;;;;5011567;28;20202;-81
2021/12/18 05:54:16;;;;;;;11.10;3.47;;;34.90;99.90;;;;;;5011733;28;20696;-81
2021/12/18 05:56:49;;;;;;;15.23;3.70;;;34.70;99.90;;;;;;5011377;28;20198;-81
2021/12/18 05:59:20;;;;;;;11.80;3.53;;;34.50;99.90;;;;;;4995977;28;20740;-81
2021/12/18 06:01:53;;;;;;;9.35;3.08;;;34.20;99.90;;;;;;5007912;28;20194;-81
2021/12/18 06:04:23;;;;;;;14.02;3.63;;;33.90;99.90;;;;;;5011215;28;20248;-80
2021/12/18 06:07:03;;;;;;;11.23;3.53;;;33.60;99.90;;;;;;5011404;28;20202;-81
2021/12/18 06:09:36;;;;;;;13.70;3.88;;;33.30;99.90;;;;;;5009404;28;20688;-81
2021/12/18 06:12:09;;;;;;;14.70;3.95;;;33.30;99.90;;;;;;5000881;28;20261;-81
2021/12/18 06:14:40;;;;;;;15.13;3.53;;;33.10;99.90;;;;;;5000980;28;20230;-80
2021/12/18 06:17:10;;;;;;;15.90;3.55;;;33.00;99.90;;;;;;5006434;28;20225;-81
2021/12/18 06:19:41;;;;;;;13.00;3.33;;;32.60;99.90;;;;;;4995064;28;20225;-79
2021/12/18 06:22:11;;;;;;;14.00;4.32;;;32.50;99.90;;;;;;4995447;28;20238;-81
2021/12/18 06:24:43;;;;;;;14.25;4.00;;;32.50;99.90;;;;;;4991601;28;20294;-82
2021/12/18 06:27:15;;;;;;;16.98;4.07;;;32.60;99.90;;;;;;4991128;28;20230;-82
2021/12/18 06:29:47;;;;;;;15.80;4.07;;;32.80;99.90;;;;;;4991668;28;20206;-82
2021/12/18 06:32:18;;;;;;;18.08;3.85;;;33.30;99.90;;;;;;5002509;28;20202;-81
2021/12/18 06:34:48;;;;;;;19.10;3.75;;;33.20;99.90;;;;;;5010943;28;20206;-80
2021/12/18 06:37:19;;;;;;;14.10;4.07;;;33.50;99.90;;;;;;5006236;28;20627;-81
2021/12/18 06:39:49;;;;;;;16.67;3.85;;;34.10;99.90;;;;;;5006546;28;20248;-81
2021/12/18 06:42:22;;;;;;;16.17;4.10;;;34.60;99.90;;;;;;5010828;28;20198;-81
2021/12/18 06:44:53;;;;;;;19.60;4.18;;;35.00;99.90;;;;;;5005103;28;20272;-84
2021/12/18 06:47:24;;;;;;;17.15;4.05;;;35.40;99.90;;;;;;5010917;28;20209;-81
2021/12/18 06:49:54;;;;;;;14.90;4.28;;;35.90;99.90;;;;;;4995056;28;20203;-81
2021/12/18 06:52:25;;;;;;;20.48;4.05;;;35.60;99.90;;;;;;5001183;28;20230;-82
2021/12/18 06:54:57;;;;;;;15.15;3.90;;;34.80;99.90;;;;;;5011015;28;20283;-81
2021/12/18 06:57:30;;;;;;;15.75;3.95;;;34.80;99.90;;;;;;5011184;28;20225;-81
2021/12/18 07:00:00;;;;;;;23.60;4.40;;;35.10;99.90;;;;;;5010791;28;20206;-81
2021/12/18 07:02:31;;;;;;;18.23;4.38;;;35.60;99.90;;;;;;4991760;28;20203;-81
2021/12/18 07:05:02;;;;;;;13.90;3.95;;;36.10;99.90;;;;;;4991885;28;20194;-81
2021/12/18 07:07:33;;;;;;;15.32;4.00;;;36.60;99.90;;;;;;4991432;28;20210;-81
2021/12/18 07:10:04;;;;;;;21.40;4.57;;;37.10;99.90;;;;;;5002950;28;20260;-81
2021/12/18 07:12:37;;;;;;;15.75;3.97;;;37.40;99.90;;;;;;5009173;28;20657;-80
2021/12/18 07:15:09;;;;;;;15.27;4.50;;;37.40;99.90;;;;;;5010206;28;20201;-81
2021/12/18 07:17:40;;;;;;;16.00;3.90;;;37.90;99.90;;;;;;4995021;28;20265;-81
2021/12/18 07:20:12;;;;;;;13.27;3.80;;;37.90;99.90;;;;;;4991785;28;20260;-82
2021/12/18 07:22:42;;;;;;;15.40;3.90;;;37.90;99.90;;;;;;5001104;28;20229;-82
2021/12/18 07:25:14;;;;;;;15.25;4.03;;;38.00;99.90;;;;;;5012519;28;20673;-80
2021/12/18 07:27:46;;;;;;;14.25;3.83;;;38.10;99.90;;;;;;5003021;28;20234;-81
2021/12/18 07:30:17;;;;;;;14.25;3.60;;;38.10;99.90;;;;;;4995753;28;20202;-81
2021/12/18 07:32:48;;;;;;;14.57;4.00;;;38.40;99.90;;;;;;5008472;28;20197;-81
2021/12/18 07:35:19;;;;;;;14.18;3.70;;;38.40;99.90;;;;;;5011052;28;20614;-81
2021/12/18 07:37:49;;;;;;;11.55;3.47;;;38.40;99.90;;;;;;5002101;28;20701;-81
2021/12/18 07:40:20;;;;;;;12.23;3.47;;;38.20;99.90;;;;;;4995028;28;20245;-81
2021/12/18 07:42:53;;;;;;;11.02;3.60;;;38.20;99.90;;;;;;5013910;28;20209;-81
2021/12/18 07:45:23;;;;;;;10.90;3.83;;;38.30;99.90;;;;;;5008468;28;20865;-81
2021/12/18 07:47:54;;;;;;;14.60;3.88;;;38.30;99.90;;;;;;4994708;28;20669;-81
2021/12/18 07:50:25;;;;;;;10.98;3.47;;;38.10;99.90;;;;;;4994418;28;20238;-81
2021/12/18 07:52:55;;;;;;;13.60;3.83;;;37.30;99.90;;;;;;4996727;28;20248;-81
2021/12/18 07:55:28;;;;;;;14.75;3.85;;;36.50;99.90;;;;;;5013529;28;20550;-81
2021/12/18 07:58:00;;;;;;;15.05;4.43;;;35.70;99.90;;;;;;4997161;28;20642;-82
2021/12/18 08:00:31;;;;;;;17.77;4.00;;;35.10;99.90;;;;;;4994565;28;20199;-81
2021/12/18 08:03:02;;;;;;;11.10;3.65;;;34.50;99.90;;;;;;5001423;28;20206;-81
2021/12/18 08:05:33;;;;;;;10.85;3.75;;;34.00;99.90;;;;;;5009859;28;20682;-80
2021/12/18 08:08:03;;;;;;;16.98;4.40;;;33.60;99.90;;;;;;4994446;28;20207;-80
2021/12/18 08:10:34;;;;;;;13.88;4.78;;;33.20;99.90;;;;;;5000579;28;20681;-82
2021/12/18 08:13:06;;;;;;;14.75;4.88;;;32.90;99.90;;;;;;5012866;28;20248;-81
2021/12/18 08:15:37;;;;;;;18.77;5.00;;;32.60;99.90;;;;;;5013819;28;20683;-82
2021/12/18 08:18:08;;;;;;;16.08;4.90;;;32.20;99.90;;;;;;5013704;28;20643;-82
2021/12/18 08:20:40;;;;;;;16.63;4.75;;;32.00;99.90;;;;;;5013256;28;20205;-82
2021/12/18 08:23:10;;;;;;;15.77;4.80;;;31.80;99.90;;;;;;4993840;28;20203;-81
2021/12/18 08:25:41;;;;;;;17.15;4.82;;;31.60;99.90;;;;;;5004975;28;20209;-81
2021/12/18 08:28:13;;;;;;;13.68;4.65;;;31.30;99.90;;;;;;4993606;28;20235;-83
2021/12/18 08:30:45;;;;;;;21.15;4.82;;;31.10;99.90;;;;;;4996513;28;20237;-82
2021/12/18 08:33:16;;;;;;;17.90;4.70;;;30.90;99.90;;;;;;5008952;28;20707;-83
2021/12/18 08:35:48;;;;;;;16.85;4.25;;;30.70;99.90;;;;;;5013291;28;20198;-82
2021/12/18 08:38:19;;;;;;;16.80;4.43;;;30.70;99.90;;;;;;5007972;28;20237;-81
2021/12/18 08:40:50;;;;;;;18.10;5.13;;;30.50;99.90;;;;;;4993671;28;20198;-81
2021/12/18 08:43:23;;;;;;;16.30;4.72;;;30.40;99.90;;;;;;4994187;28;20319;-82
2021/12/18 08:45:54;;;;;;;14.95;4.82;;;30.30;99.90;;;;;;4993950;28;20199;-81
2021/12/18 08:48:25;;;;;;;22.52;5.57;;;30.20;99.90;;;;;;5011260;28;20205;-79
2021/12/18 08:50:55;;;;;;;19.77;5.22;;;30.10;99.90;;;;;;5014317;28;20202;-82
2021/12/18 08:53:26;;;;;;;15.98;4.57;;;30.00;99.90;;;;;;5012806;28;20197;-82
2021/12/18 08:55:56;;;;;;;17.27;5.07;;;29.90;99.90;;;;;;5002961;28;20249;-83
2021/12/18 08:58:31;;;;;;;17.30;5.00;;;29.80;99.90;;;;;;5012713;28;20221;-82
2021/12/18 09:01:06;;;;;;;14.75;4.47;;;29.80;99.90;;;;;;5011145;28;20652;-82
2021/12/18 09:03:37;;;;;;;19.58;4.63;;;29.80;99.90;;;;;;5012656;28;20277;-82
2021/12/18 09:06:07;;;;;;;15.55;4.78;;;29.70;99.90;;;;;;5007721;28;20202;-82
2021/12/18 09:08:38;;;;;;;17.83;4.88;;;29.60;99.90;;;;;;5012399;28;20225;-82
2021/12/18 09:11:09;;;;;;;17.13;4.88;;;29.60;99.90;;;;;;4992860;28;20207;-82
2021/12/18 09:13:41;;;;;;;12.73;4.60;;;29.50;99.90;;;;;;5009084;28;20197;-82
2021/12/18 09:16:12;;;;;;;13.85;4.47;;;29.40;99.90;;;;;;5011640;28;20202;-81
2021/12/18 09:18:44;;;;;;;19.05;4.82;;;29.40;99.90;;;;;;5011918;28;20275;-82
2021/12/18 09:21:16;;;;;;;16.38;4.72;;;29.30;99.90;;;;;;5004643;28;20206;-80
2021/12/18 09:23:46;;;;;;;13.02;4.28;;;29.20;99.90;;;;;;5005878;28;20205;-81
2021/12/18 09:27:04;;;;;;;15.93;4.90;;;29.20;99.90;;;;;;4999418;28;20685;-81
2021/12/18 09:29:37;;;;;;;19.40;5.15;;;29.20;99.90;;;;;;4985948;28;20327;-82
2021/12/18 09:32:08;;;;;;;16.75;4.65;;;29.10;99.90;;;;;;4989539;28;20257;-81
2021/12/18 09:34:39;;;;;;;18.70;4.93;;;29.10;99.90;;;;;;4991432;28;20199;-81
2021/12/18 09:37:09;;;;;;;19.20;5.15;;;29.10;99.90;;;;;;4991875;28;20256;-82
2021/12/18 09:39:40;;;;;;;19.30;4.63;;;29.10;99.90;;;;;;4985705;28;20269;-81
2021/12/18 09:42:11;;;;;;;18.42;5.05;;;29.00;99.90;;;;;;4987377;28;20265;-81
2021/12/18 09:44:43;;;;;;;18.80;5.10;;;29.00;99.90;;;;;;4986404;28;20199;-81
2021/12/18 09:47:15;;;;;;;14.20;4.53;;;29.00;99.90;;;;;;4973254;28;20275;-81
2021/12/18 09:49:46;;;;;;;17.88;5.30;;;29.00;99.90;;;;;;4972675;28;20207;-82
2021/12/18 09:52:17;;;;;;;17.67;5.32;;;28.90;99.90;;;;;;4972910;28;20674;-81
2021/12/18 09:54:48;;;;;;;22.20;5.88;;;28.90;99.90;;;;;;4972455;28;20242;-82
2021/12/18 09:57:18;;;;;;;21.63;5.70;;;28.90;99.90;;;;;;4991603;28;20206;-82
2021/12/18 09:59:51;;;;;;;17.95;5.05;;;28.80;99.90;;;;;;4991828;28;20222;-80
2021/12/18 10:02:22;;;;;;;19.80;5.07;;;28.80;99.90;;;;;;4993412;28;20199;-78
2021/12/18 10:04:52;;;;;;;21.50;5.50;;;28.80;99.90;;;;;;4993465;28;20210;-81
2021/12/18 10:07:24;;;;;;;18.67;5.60;;;28.80;99.90;;;;;;4991260;28;20203;-81
2021/12/18 10:09:56;;;;;;;21.88;5.07;;;28.70;99.90;;;;;;4991570;28;20199;-81
2021/12/18 10:12:28;;;;;;;15.77;5.03;;;28.70;99.90;;;;;;4988816;28;20206;-81
2021/12/18 10:15:02;;;;;;;16.05;4.90;;;28.70;99.90;;;;;;4991371;28;20203;-80
2021/12/18 10:17:34;;;;;;;19.40;5.18;;;28.70;99.90;;;;;;4990411;28;20252;-80
2021/12/18 10:20:23;;;;;;;17.80;5.13;;;28.70;99.90;;;;;;4976671;28;20645;-82
2021/12/18 10:22:55;;;;;;;13.60;4.70;;;28.60;99.90;;;;;;4972713;28;20199;-81
2021/12/18 10:25:27;;;;;;;19.05;5.53;;;28.60;99.90;;;;;;4990156;28;20222;-82
2021/12/18 10:28:02;;;;;;;19.60;4.80;;;28.60;99.90;;;;;;5000335;28;20607;-81
2021/12/18 10:30:35;;;;;;;17.92;4.93;;;28.60;99.90;;;;;;5011056;28;20248;-83
2021/12/18 10:33:08;;;;;;;18.98;5.35;;;28.50;99.90;;;;;;5008874;28;20221;-81
2021/12/18 10:35:48;;;;;;;15.88;4.50;;;28.50;99.90;;;;;;5011217;28;20293;-84
2021/12/18 10:38:46;;;;;;;13.55;4.50;;;28.40;99.90;;;;;;5005678;28;20201;-83
2021/12/18 10:41:26;;;;;;;15.63;4.38;;;28.40;99.90;;;;;;5010961;28;20672;-81
2021/12/18 10:44:07;;;;;;;16.42;4.32;;;28.40;99.90;;;;;;5011047;28;20657;-81
2021/12/18 10:46:42;;;;;;;17.60;4.80;;;28.30;99.90;;;;;;5005260;28;20207;-81
2021/12/18 10:49:13;;;;;;;12.43;4.20;;;28.30;99.90;;;;;;4991361;28;20249;-80
2021/12/18 10:51:45;;;;;;;16.88;4.85;;;28.20;99.90;;;;;;5009422;28;20244;-80
2021/12/18 10:54:18;;;;;;;17.38;4.50;;;28.20;99.90;;;;;;4993342;28;20261;-80
2021/12/18 10:56:53;;;;;;;14.20;4.38;;;28.20;99.90;;;;;;4991004;28;20207;-80
2021/12/18 10:59:25;;;;;;;21.23;4.75;;;28.20;99.90;;;;;;4991239;28;20404;-82
2021/12/18 11:02:00;;;;;;;18.13;4.88;;;28.20;99.90;;;;;;4991127;28;20317;-81
2021/12/18 11:04:33;;;;;;;18.75;5.15;;;28.20;99.90;;;;;;5004153;28;20244;-80
2021/12/18 11:07:20;;;;;;;14.38;4.25;;;28.20;99.90;;;;;;5010806;28;20244;-81
2021/12/18 11:10:11;;;;;;;18.55;4.40;;;28.10;99.90;;;;;;5010158;28;20621;-82
2021/12/18 11:15:28;;;;;;;15.95;5.00;;;28.20;99.90;;;;;;5010774;28;20688;-82
2021/12/18 11:18:01;;;;;;;14.45;4.57;;;28.20;99.90;;;;;;5017096;28;20260;-81
2021/12/18 11:20:33;;;;;;;15.13;5.20;;;28.10;99.90;;;;;;5008643;28;20715;-81
2021/12/18 11:23:04;;;;;;;16.70;5.28;;;28.20;99.90;;;;;;5010611;28;20201;-81
2021/12/18 11:25:35;;;;;;;14.23;5.30;;;28.10;99.90;;;;;;5011002;28;20216;-82
2021/12/18 11:28:11;;;;;;;17.08;5.97;;;28.10;99.90;;;;;;4995464;28;20230;-81
2021/12/18 11:30:43;;;;;;;15.00;5.22;;;28.10;99.90;;;;;;4990774;28;20209;-81
2021/12/18 11:33:16;;;;;;;16.13;5.70;;;28.20;99.90;;;;;;4991026;28;20195;-82
2021/12/18 11:35:47;;;;;;;16.25;5.78;;;28.10;99.90;;;;;;4990642;28;20209;-80
2021/12/18 11:38:21;;;;;;;17.08;5.47;;;28.10;99.90;;;;;;5000673;28;20210;-81
2021/12/18 11:40:52;;;;;;;16.75;5.55;;;28.10;99.90;;;;;;4999713;28;20329;-81
2021/12/18 11:43:36;;;;;;;14.35;5.10;;;28.10;99.90;;;;;;5008526;28;20639;-81
2021/12/18 11:46:35;;;;;;;14.95;5.57;;;28.10;99.90;;;;;;4998456;28;20213;-81
2021/12/18 11:49:08;;;;;;;16.67;5.45;;;28.10;99.90;;;;;;4992502;28;20243;-81
2021/12/18 11:51:40;;;;;;;15.02;4.82;;;28.10;99.90;;;;;;4991381;28;20202;-81
2021/12/18 11:54:48;;;;;;;16.25;5.20;;;28.00;99.90;;;;;;4993160;28;20198;-81
2021/12/18 11:57:42;;;;;;;13.55;4.80;;;28.00;99.90;;;;;;5011317;28;20197;-81
2021/12/18 12:00:40;;;;;;;16.65;4.63;;;27.90;99.90;;;;;;5009466;28;20225;-81
2021/12/18 12:03:13;;;;;;;14.93;4.93;;;27.90;99.90;;;;;;4997555;28;20206;-80
2021/12/18 12:05:48;;;;;;;16.73;5.22;;;27.90;99.90;;;;;;5002278;28;20202;-81
2021/12/18 12:08:30;;;;;;;16.10;4.80;;;27.90;99.90;;;;;;5013582;28;20205;-81
2021/12/18 12:11:18;;;;;;;27.50;5.78;;;27.90;99.90;;;;;;5014279;28;20293;-81
2021/12/18 12:14:03;;;;;;;11.23;3.30;;;27.90;99.90;;;;;;5011262;28;20203;-81
2021/12/18 12:17:08;;;;;;;7.30;1.27;;;27.80;99.90;;;;;;5015204;28;20229;-80
2021/12/18 12:20:00;;;;;;;2.60;0.50;;;27.80;99.90;;;;;;5005638;28;20305;-80
2021/12/18 12:22:53;;;;;;;3.45;0.60;;;27.90;99.90;;;;;;4994067;28;20202;-81
2021/12/18 12:25:39;;;;;;;3.17;0.52;;;28.00;99.90;;;;;;4994108;28;20622;-81
2021/12/18 12:28:11;;;;;;;1.00;0.30;;;27.90;99.90;;;;;;5002057;28;20598;-81
2021/12/18 12:30:45;;;;;;;5.95;0.50;;;27.80;99.90;;;;;;5015225;28;20284;-81
2021/12/18 12:33:24;;;;;;;2.13;0.28;;;27.60;99.90;;;;;;5020050;28;20229;-81
2021/12/18 12:36:09;;;;;;;1.65;0.40;;;27.30;99.90;;;;;;5013798;28;20225;-81
2021/12/18 12:38:44;;;;;;;4.90;0.47;;;27.10;99.90;;;;;;5013087;28;20245;-82
2021/12/18 12:41:37;;;;;;;2.65;0.55;;;26.80;99.90;;;;;;5014224;28;20182;-82
2021/12/18 12:44:21;;;;;;;1.92;0.60;;;26.30;99.90;;;;;;5005167;28;20238;-82
2021/12/18 12:47:11;;;;;;;3.70;0.75;;;25.80;99.90;;;;;;5010345;28;20206;-81
2021/12/18 12:49:42;;;;;;;3.13;0.80;;;25.60;99.90;;;;;;5013044;28;20201;-82
2021/12/18 12:52:14;;;;;;;2.58;0.60;;;25.40;99.90;;;;;;5014112;28;20194;-82
2021/12/18 12:54:52;;;;;;;1.50;0.40;;;25.40;99.90;;;;;;5011630;28;20198;-82
2021/12/18 12:57:55;;;;;;;2.45;0.50;;;25.40;99.90;;;;;;5013352;28;20214;-81
2021/12/18 13:00:46;;;;;;;2.70;0.47;;;25.40;99.90;;;;;;5012783;28;20248;-81
2021/12/18 13:03:27;;;;;;;1.63;0.68;;;25.30;99.90;;;;;;5004359;28;20616;-81
2021/12/18 13:06:12;;;;;;;1.80;0.60;;;25.40;99.90;;;;;;5013416;28;20198;-82
2021/12/18 13:08:45;;;;;;;2.42;0.63;;;25.40;99.90;;;;;;5008359;28;20248;-82
2021/12/18 13:11:28;;;;;;;4.95;1.00;;;25.40;99.90;;;;;;4994697;28;20260;-82
2021/12/18 13:13:59;;;;;;;3.88;1.00;;;24.80;99.90;;;;;;4999268;28;20210;-82
2021/12/18 13:16:29;;;;;;;5.90;1.10;;;24.50;99.90;;;;;;5012117;28;20582;-81
2021/12/18 13:19:01;;;;;;;6.40;1.10;;;24.30;99.90;;;;;;5011324;28;20684;-81
2021/12/18 13:21:35;;;;;;;4.43;0.80;;;24.10;99.90;;;;;;4992716;28;20198;-81
2021/12/18 13:24:07;;;;;;;2.33;0.80;;;24.00;99.90;;;;;;4993239;28;20206;-81
2021/12/18 13:26:43;;;;;;;2.90;0.80;;;23.90;99.90;;;;;;4992977;28;20203;-81
2021/12/18 13:29:18;;;;;;;3.53;0.75;;;23.80;99.90;;;;;;4992577;28;20322;-81
2021/12/18 13:31:52;;;;;;;2.42;0.82;;;23.90;99.90;;;;;;4992516;28;20657;-81
2021/12/18 13:34:25;;;;;;;2.00;0.90;;;24.00;99.90;;;;;;4997115;28;20197;-81
2021/12/18 13:36:57;;;;;;;2.00;0.90;;;23.90;99.90;;;;;;5000004;28;20570;-82
2021/12/18 13:39:31;;;;;;;3.67;0.77;;;23.90;99.90;;;;;;5011984;28;20704;-81
2021/12/18 13:42:12;;;;;;;3.42;0.90;;;23.80;99.90;;;;;;5011951;28;20264;-81
2021/12/18 13:44:48;;;;;;;3.53;0.90;;;23.80;99.90;;;;;;5003367;28;20206;-81
2021/12/18 13:47:21;;;;;;;3.28;1.02;;;23.90;99.90;;;;;;4999937;28;20723;-80